sensor_id;sensor_type;location;lat;lon;timestamp;noise_LAeq;noise_LA_min;noise_LA_max;noise_LA01;noise_LA95
66589;Laerm;53447;49.272;11.070;2023-09-08T00:01:08;42.51;39.03;54.04;;
66589;Laerm;53447;49.272;11.070;2023-09-08T00:03:33;41.27;38.20;45.86;;
66589;Laerm;53447;49.272;11.070;2023-09-08T00:05:58;41.81;38.93;50.34;;
66589;Laerm;53447;49.272;11.070;2023-09-08T00:08:23;42.46;39.96;44.78;;
66589;Laerm;53447;49.272;11.070;2023-09-08T00:10:49;42.03;38.73;47.68;;
66589;Laerm;53447;49.272;11.070;2023-09-08T00:13:14;42.56;40.11;46.17;;
66589;Laerm;53447;49.272;11.070;2023-09-08T00:15:39;42.71;40.32;44.83;;
66589;Laerm;53447;49.272;11.070;2023-09-08T00:18:04;42.42;39.96;44.78;;
66589;Laerm;53447;49.272;11.070;2023-09-08T00:20:30;41.39;38.20;43.54;;
66589;Laerm;53447;49.272;11.070;2023-09-08T00:22:55;41.73;38.42;47.34;;
66589;Laerm;53447;49.272;11.070;2023-09-08T00:25:20;47.08;38.63;64.51;;
66589;Laerm;53447;49.272;11.070;2023-09-08T00:27:46;43.07;39.88;50.67;;
66589;Laerm;53447;49.272;11.070;2023-09-08T00:30:11;42.86;40.39;45.23;;
66589;Laerm;53447;49.272;11.070;2023-09-08T00:32:36;42.22;40.18;48.19;;
66589;Laerm;53447;49.272;11.070;2023-09-08T00:35:02;41.42;38.53;43.40;;
66589;Laerm;53447;49.272;11.070;2023-09-08T00:37:27;41.60;39.30;44.83;;
66589;Laerm;53447;49.272;11.070;2023-09-08T00:39:52;41.57;38.93;44.01;;
66589;Laerm;53447;49.272;11.070;2023-09-08T00:42:17;41.70;39.30;48.80;;
66589;Laerm;53447;49.272;11.070;2023-09-08T00:44:42;42.75;40.25;45.23;;
66589;Laerm;53447;49.272;11.070;2023-09-08T00:47:08;42.70;40.32;45.72;;
66589;Laerm;53447;49.272;11.070;2023-09-08T00:49:33;42.24;39.48;48.63;;
66589;Laerm;53447;49.272;11.070;2023-09-08T00:51:58;43.07;39.72;47.11;;
66589;Laerm;53447;49.272;11.070;2023-09-08T00:54:24;42.91;40.32;51.82;;
66589;Laerm;53447;49.272;11.070;2023-09-08T00:56:49;41.88;39.12;48.00;;
66589;Laerm;53447;49.272;11.070;2023-09-08T00:59:19;41.21;38.53;43.12;;
66589;Laerm;53447;49.272;11.070;2023-09-08T01:01:45;41.83;39.21;45.19;;
66589;Laerm;53447;49.272;11.070;2023-09-08T01:04:10;42.33;40.39;52.80;;
66589;Laerm;53447;49.272;11.070;2023-09-08T01:06:35;42.20;40.11;44.04;;
66589;Laerm;53447;49.272;11.070;2023-09-08T01:09:02;42.61;40.53;46.57;;
66589;Laerm;53447;49.272;11.070;2023-09-08T01:11:27;42.10;39.30;50.58;;
66589;Laerm;53447;49.272;11.070;2023-09-08T01:13:53;41.65;38.93;46.34;;
66589;Laerm;53447;49.272;11.070;2023-09-08T01:16:18;42.12;39.39;44.25;;
66589;Laerm;53447;49.272;11.070;2023-09-08T01:18:43;42.36;39.48;46.09;;
66589;Laerm;53447;49.272;11.070;2023-09-08T01:21:24;41.74;39.21;44.22;;
66589;Laerm;53447;49.272;11.070;2023-09-08T01:26:31;42.73;39.72;45.09;;
66589;Laerm;53447;49.272;11.070;2023-09-08T01:29:00;42.16;39.03;45.39;;
66589;Laerm;53447;49.272;11.070;2023-09-08T01:31:26;41.64;38.73;44.10;;
66589;Laerm;53447;49.272;11.070;2023-09-08T01:33:52;41.94;39.21;44.36;;
66589;Laerm;53447;49.272;11.070;2023-09-08T01:36:17;41.55;38.63;43.83;;
66589;Laerm;53447;49.272;11.070;2023-09-08T01:38:42;41.95;39.21;44.36;;
66589;Laerm;53447;49.272;11.070;2023-09-08T01:41:07;42.08;39.30;43.80;;
66589;Laerm;53447;49.272;11.070;2023-09-08T01:43:33;42.10;39.96;45.34;;
66589;Laerm;53447;49.272;11.070;2023-09-08T01:45:58;43.01;40.18;47.91;;
66589;Laerm;53447;49.272;11.070;2023-09-08T01:48:23;43.51;40.11;56.79;;
66589;Laerm;53447;49.272;11.070;2023-09-08T01:50:48;43.73;39.39;56.42;;
66589;Laerm;53447;49.272;11.070;2023-09-08T01:53:14;42.19;39.96;44.93;;
66589;Laerm;53447;49.272;11.070;2023-09-08T01:55:39;41.66;38.31;44.80;;
66589;Laerm;53447;49.272;11.070;2023-09-08T01:58:04;41.75;39.21;44.80;;
66589;Laerm;53447;49.272;11.070;2023-09-08T02:00:29;42.56;40.11;46.48;;
66589;Laerm;53447;49.272;11.070;2023-09-08T02:02:55;41.89;39.12;46.50;;
66589;Laerm;53447;49.272;11.070;2023-09-08T02:05:20;42.18;40.03;44.36;;
66589;Laerm;53447;49.272;11.070;2023-09-08T02:07:45;42.28;39.48;48.67;;
66589;Laerm;53447;49.272;11.070;2023-09-08T02:10:10;43.26;41.21;47.90;;
66589;Laerm;53447;49.272;11.070;2023-09-08T02:12:36;42.96;40.85;52.24;;
66589;Laerm;53447;49.272;11.070;2023-09-08T02:15:01;42.95;40.39;49.71;;
66589;Laerm;53447;49.272;11.070;2023-09-08T02:17:26;42.06;39.88;43.70;;
66589;Laerm;53447;49.272;11.070;2023-09-08T02:19:51;42.46;40.39;45.50;;
66589;Laerm;53447;49.272;11.070;2023-09-08T02:22:16;42.84;40.18;49.01;;
66589;Laerm;53447;49.272;11.070;2023-09-08T02:24:42;42.71;40.53;45.05;;
66589;Laerm;53447;49.272;11.070;2023-09-08T02:27:07;43.01;40.03;45.23;;
66589;Laerm;53447;49.272;11.070;2023-09-08T02:29:32;42.52;40.25;45.19;;
66589;Laerm;53447;49.272;11.070;2023-09-08T02:31:57;42.79;39.96;45.80;;
66589;Laerm;53447;49.272;11.070;2023-09-08T02:34:23;42.33;39.72;52.86;;
66589;Laerm;53447;49.272;11.070;2023-09-08T02:36:48;42.50;40.25;44.39;;
66589;Laerm;53447;49.272;11.070;2023-09-08T02:39:15;42.57;40.59;44.10;;
66589;Laerm;53447;49.272;11.070;2023-09-08T02:41:41;43.05;40.39;45.82;;
66589;Laerm;53447;49.272;11.070;2023-09-08T02:44:06;42.27;39.21;46.66;;
66589;Laerm;53447;49.272;11.070;2023-09-08T02:46:31;42.52;40.11;45.30;;
66589;Laerm;53447;49.272;11.070;2023-09-08T02:48:57;42.35;40.46;44.73;;
66589;Laerm;53447;49.272;11.070;2023-09-08T02:51:22;42.64;39.64;45.07;;
66589;Laerm;53447;49.272;11.070;2023-09-08T02:53:47;42.95;40.91;45.50;;
66589;Laerm;53447;49.272;11.070;2023-09-08T02:56:12;42.63;40.18;47.85;;
66589;Laerm;53447;49.272;11.070;2023-09-08T02:58:38;42.49;39.56;45.82;;
66589;Laerm;53447;49.272;11.070;2023-09-08T03:01:16;42.78;40.66;45.34;;
66589;Laerm;53447;49.272;11.070;2023-09-08T03:03:44;47.71;40.79;66.16;;
66589;Laerm;53447;49.272;11.070;2023-09-08T03:06:09;43.23;40.39;49.56;;
66589;Laerm;53447;49.272;11.070;2023-09-08T03:08:35;42.65;40.32;44.55;;
66589;Laerm;53447;49.272;11.070;2023-09-08T03:11:02;42.85;41.32;45.58;;
66589;Laerm;53447;49.272;11.070;2023-09-08T03:13:28;43.53;40.97;48.22;;
66589;Laerm;53447;49.272;11.070;2023-09-08T03:15:54;43.18;41.21;46.20;;
66589;Laerm;53447;49.272;11.070;2023-09-08T03:18:19;43.10;40.79;45.30;;
66589;Laerm;53447;49.272;11.070;2023-09-08T03:20:48;43.73;40.79;51.38;;
66589;Laerm;53447;49.272;11.070;2023-09-08T03:23:13;43.21;41.15;48.51;;
66589;Laerm;53447;49.272;11.070;2023-09-08T03:25:38;43.13;41.54;45.23;;
66589;Laerm;53447;49.272;11.070;2023-09-08T03:28:04;43.18;41.21;50.06;;
66589;Laerm;53447;49.272;11.070;2023-09-08T03:30:29;43.77;40.85;49.84;;
66589;Laerm;53447;49.272;11.070;2023-09-08T03:32:54;43.16;41.15;45.39;;
66589;Laerm;53447;49.272;11.070;2023-09-08T03:35:19;43.26;41.48;48.69;;
66589;Laerm;53447;49.272;11.070;2023-09-08T03:37:44;43.38;40.80;47.26;;
66589;Laerm;53447;49.272;11.070;2023-09-08T03:40:10;48.60;40.72;66.06;;
66589;Laerm;53447;49.272;11.070;2023-09-08T03:42:35;42.95;40.72;44.98;;
66589;Laerm;53447;49.272;11.070;2023-09-08T03:45:00;43.03;40.39;46.95;;
66589;Laerm;53447;49.272;11.070;2023-09-08T03:47:25;43.13;41.38;45.23;;
66589;Laerm;53447;49.272;11.070;2023-09-08T03:49:51;42.97;41.15;44.90;;
66589;Laerm;53447;49.272;11.070;2023-09-08T03:52:16;43.07;41.38;45.43;;
66589;Laerm;53447;49.272;11.070;2023-09-08T03:54:41;42.89;41.26;44.49;;
66589;Laerm;53447;49.272;11.070;2023-09-08T03:57:06;49.87;41.69;69.63;;
66589;Laerm;53447;49.272;11.070;2023-09-08T03:59:32;50.94;41.59;68.16;;
66589;Laerm;53447;49.272;11.070;2023-09-08T04:01:57;44.53;41.26;49.78;;
66589;Laerm;53447;49.272;11.070;2023-09-08T04:04:22;43.67;41.54;47.56;;
66589;Laerm;53447;49.272;11.070;2023-09-08T04:06:47;43.01;40.97;44.85;;
66589;Laerm;53447;49.272;11.070;2023-09-08T04:09:13;44.23;41.69;50.58;;
66589;Laerm;53447;49.272;11.070;2023-09-08T04:11:39;43.81;41.03;48.45;;
66589;Laerm;53447;49.272;11.070;2023-09-08T04:14:04;43.67;41.79;49.15;;
66589;Laerm;53447;49.272;11.070;2023-09-08T04:16:29;69.59;41.32;89.79;;
66589;Laerm;53447;49.272;11.070;2023-09-08T04:18:54;43.68;41.79;46.48;;
66589;Laerm;53447;49.272;11.070;2023-09-08T04:21:20;44.09;42.27;52.12;;
66589;Laerm;53447;49.272;11.070;2023-09-08T04:23:45;43.58;41.84;50.09;;
66589;Laerm;53447;49.272;11.070;2023-09-08T04:26:11;44.11;41.59;49.07;;
66589;Laerm;53447;49.272;11.070;2023-09-08T04:28:36;43.79;41.84;54.13;;
66589;Laerm;53447;49.272;11.070;2023-09-08T04:31:02;52.23;41.59;70.13;;
66589;Laerm;53447;49.272;11.070;2023-09-08T04:33:27;44.07;41.79;51.25;;
66589;Laerm;53447;49.272;11.070;2023-09-08T04:35:54;44.00;41.84;47.21;;
66589;Laerm;53447;49.272;11.070;2023-09-08T04:38:19;44.51;41.84;56.57;;
66589;Laerm;53447;49.272;11.070;2023-09-08T04:40:47;51.66;42.22;69.53;;
66589;Laerm;53447;49.272;11.070;2023-09-08T04:43:13;44.73;42.04;53.28;;
66589;Laerm;53447;49.272;11.070;2023-09-08T04:45:38;49.23;41.99;67.96;;
66589;Laerm;53447;49.272;11.070;2023-09-08T04:48:04;57.16;41.94;77.76;;
66589;Laerm;53447;49.272;11.070;2023-09-08T04:50:29;43.74;41.43;52.83;;
66589;Laerm;53447;49.272;11.070;2023-09-08T04:52:54;44.23;41.84;51.63;;
66589;Laerm;53447;49.272;11.070;2023-09-08T04:55:20;51.28;41.74;69.54;;
66589;Laerm;53447;49.272;11.070;2023-09-08T04:57:45;43.78;41.89;51.47;;
66589;Laerm;53447;49.272;11.070;2023-09-08T05:00:10;53.98;42.04;73.03;;
66589;Laerm;53447;49.272;11.070;2023-09-08T05:02:36;45.32;41.89;57.37;;
66589;Laerm;53447;49.272;11.070;2023-09-08T05:05:02;45.30;41.94;58.01;;
66589;Laerm;53447;49.272;11.070;2023-09-08T05:07:27;44.25;41.74;54.66;;
66589;Laerm;53447;49.272;11.070;2023-09-08T05:09:52;51.86;41.94;71.09;;
66589;Laerm;53447;49.272;11.070;2023-09-08T05:12:17;53.19;42.26;70.76;;
66589;Laerm;53447;49.272;11.070;2023-09-08T05:14:43;43.31;41.54;49.75;;
66589;Laerm;53447;49.272;11.070;2023-09-08T05:17:08;51.02;42.04;69.43;;
66589;Laerm;53447;49.272;11.070;2023-09-08T05:19:33;43.56;41.69;52.35;;
66589;Laerm;53447;49.272;11.070;2023-09-08T05:21:58;44.45;42.18;56.89;;
66589;Laerm;53447;49.272;11.070;2023-09-08T05:24:23;43.57;42.18;48.24;;
66589;Laerm;53447;49.272;11.070;2023-09-08T05:26:50;43.58;41.79;49.71;;
66589;Laerm;53447;49.272;11.070;2023-09-08T05:29:16;43.67;41.64;48.87;;
66589;Laerm;53447;49.272;11.070;2023-09-08T05:31:41;44.49;41.69;61.22;;
66589;Laerm;53447;49.272;11.070;2023-09-08T05:34:06;52.35;42.22;70.88;;
66589;Laerm;53447;49.272;11.070;2023-09-08T05:36:32;44.57;42.49;52.65;;
66589;Laerm;53447;49.272;11.070;2023-09-08T05:38:58;44.94;42.53;56.22;;
66589;Laerm;53447;49.272;11.070;2023-09-08T05:41:23;44.48;42.49;56.16;;
66589;Laerm;53447;49.272;11.070;2023-09-08T05:43:48;44.34;42.36;53.31;;
66589;Laerm;53447;49.272;11.070;2023-09-08T05:46:14;51.59;42.49;70.22;;
66589;Laerm;53447;49.272;11.070;2023-09-08T05:48:39;52.77;42.40;72.10;;
66589;Laerm;53447;49.272;11.070;2023-09-08T05:51:04;44.57;42.44;51.62;;
66589;Laerm;53447;49.272;11.070;2023-09-08T05:53:31;44.85;42.65;51.34;;
66589;Laerm;53447;49.272;11.070;2023-09-08T05:55:57;52.28;42.88;71.38;;
66589;Laerm;53447;49.272;11.070;2023-09-08T05:58:22;53.61;43.01;72.10;;
66589;Laerm;53447;49.272;11.070;2023-09-08T06:00:49;52.15;42.81;68.73;;
66589;Laerm;53447;49.272;11.070;2023-09-08T06:03:14;55.49;43.15;71.63;;
66589;Laerm;53447;49.272;11.070;2023-09-08T06:05:39;47.69;42.53;64.49;;
66589;Laerm;53447;49.272;11.070;2023-09-08T06:08:05;56.12;41.59;72.05;;
66589;Laerm;53447;49.272;11.070;2023-09-08T06:10:30;51.52;42.18;70.10;;
66589;Laerm;53447;49.272;11.070;2023-09-08T06:12:55;48.70;42.04;65.39;;
66589;Laerm;53447;49.272;11.070;2023-09-08T06:15:21;53.36;42.18;70.08;;
66589;Laerm;53447;49.272;11.070;2023-09-08T06:17:46;47.85;42.44;65.30;;
66589;Laerm;53447;49.272;11.070;2023-09-08T06:20:11;53.05;42.31;70.91;;
66589;Laerm;53447;49.272;11.070;2023-09-08T06:22:37;52.16;42.13;69.55;;
66589;Laerm;53447;49.272;11.070;2023-09-08T06:25:02;43.98;41.84;53.77;;
66589;Laerm;53447;49.272;11.070;2023-09-08T06:27:27;52.75;41.99;68.37;;
66589;Laerm;53447;49.272;11.070;2023-09-08T06:29:52;44.86;42.04;57.71;;
66589;Laerm;53447;49.272;11.070;2023-09-08T06:32:18;45.21;42.27;56.06;;
66589;Laerm;53447;49.272;11.070;2023-09-08T06:34:43;43.74;41.99;54.03;;
66589;Laerm;53447;49.272;11.070;2023-09-08T06:37:08;52.07;42.13;68.55;;
66589;Laerm;53447;49.272;11.070;2023-09-08T06:39:33;54.48;41.74;74.96;;
66589;Laerm;53447;49.272;11.070;2023-09-08T06:41:59;52.30;42.49;68.93;;
66589;Laerm;53447;49.272;11.070;2023-09-08T06:44:24;44.15;41.99;62.04;;
66589;Laerm;53447;49.272;11.070;2023-09-08T06:46:49;51.75;41.48;66.54;;
66589;Laerm;53447;49.272;11.070;2023-09-08T06:49:14;46.41;41.32;65.47;;
66589;Laerm;53447;49.272;11.070;2023-09-08T06:51:40;43.14;41.43;49.97;;
66589;Laerm;53447;49.272;11.070;2023-09-08T06:54:13;53.83;41.59;71.54;;
66589;Laerm;53447;49.272;11.070;2023-09-08T06:56:38;44.55;40.85;62.59;;
66589;Laerm;53447;49.272;11.070;2023-09-08T06:59:04;51.76;41.26;70.83;;
66589;Laerm;53447;49.272;11.070;2023-09-08T07:01:29;53.45;41.26;71.95;;
66589;Laerm;53447;49.272;11.070;2023-09-08T07:03:54;45.33;41.21;65.42;;
66589;Laerm;53447;49.272;11.070;2023-09-08T07:06:20;43.34;40.97;57.39;;
66589;Laerm;53447;49.272;11.070;2023-09-08T07:08:47;46.00;40.46;67.55;;
66589;Laerm;53447;49.272;11.070;2023-09-08T07:11:14;43.56;40.59;49.48;;
66589;Laerm;53447;49.272;11.070;2023-09-08T07:13:39;43.39;40.69;60.42;;
66589;Laerm;53447;49.272;11.070;2023-09-08T07:16:05;43.13;41.32;58.22;;
66589;Laerm;53447;49.272;11.070;2023-09-08T07:18:30;54.39;41.26;71.10;;
66589;Laerm;53447;49.272;11.070;2023-09-08T07:20:59;43.62;40.85;60.11;;
66589;Laerm;53447;49.272;11.070;2023-09-08T07:23:25;43.08;40.79;53.80;;
66589;Laerm;53447;49.272;11.070;2023-09-08T07:25:50;48.05;40.53;63.84;;
66589;Laerm;53447;49.272;11.070;2023-09-08T07:28:15;53.55;41.03;73.67;;
66589;Laerm;53447;49.272;11.070;2023-09-08T07:30:41;48.14;40.53;63.82;;
66589;Laerm;53447;49.272;11.070;2023-09-08T07:33:06;43.79;40.85;64.61;;
66589;Laerm;53447;49.272;11.070;2023-09-08T07:35:31;43.60;40.85;65.26;;
66589;Laerm;53447;49.272;11.070;2023-09-08T07:37:57;51.19;40.53;69.82;;
66589;Laerm;53447;49.272;11.070;2023-09-08T07:40:22;42.56;40.46;60.27;;
66589;Laerm;53447;49.272;11.070;2023-09-08T07:42:47;42.62;39.96;58.53;;
66589;Laerm;53447;49.272;11.070;2023-09-08T07:45:13;42.72;40.66;59.25;;
66589;Laerm;53447;49.272;11.070;2023-09-08T07:47:38;50.05;40.46;75.69;;
66589;Laerm;53447;49.272;11.070;2023-09-08T07:50:16;62.66;40.46;82.11;;
66589;Laerm;53447;49.272;11.070;2023-09-08T07:52:42;42.56;40.53;58.85;;
66589;Laerm;53447;49.272;11.070;2023-09-08T07:55:07;42.48;40.39;56.14;;
66589;Laerm;53447;49.272;11.070;2023-09-08T07:57:32;42.31;40.18;48.55;;
66589;Laerm;53447;49.272;11.070;2023-09-08T07:59:57;58.01;40.25;78.47;;
66589;Laerm;53447;49.272;11.070;2023-09-08T08:02:23;49.05;39.80;66.28;;
66589;Laerm;53447;49.272;11.070;2023-09-08T08:04:48;42.32;39.88;55.77;;
66589;Laerm;53447;49.272;11.070;2023-09-08T08:07:13;49.24;39.12;67.98;;
66589;Laerm;53447;49.272;11.070;2023-09-08T08:09:38;50.74;39.72;70.30;;
66589;Laerm;53447;49.272;11.070;2023-09-08T08:12:03;42.50;40.03;63.53;;
66589;Laerm;53447;49.272;11.070;2023-09-08T08:14:30;41.78;39.48;56.26;;
66589;Laerm;53447;49.272;11.070;2023-09-08T08:16:55;41.64;39.56;51.52;;
66589;Laerm;53447;49.272;11.070;2023-09-08T08:19:20;41.68;39.13;45.40;;
66589;Laerm;53447;49.272;11.070;2023-09-08T08:21:45;43.27;39.80;53.67;;
66589;Laerm;53447;49.272;11.070;2023-09-08T08:24:11;50.07;39.03;68.01;;
66589;Laerm;53447;49.272;11.070;2023-09-08T08:26:36;41.41;38.42;47.19;;
66589;Laerm;53447;49.272;11.070;2023-09-08T08:29:01;51.01;38.83;75.05;;
66589;Laerm;53447;49.272;11.070;2023-09-08T08:31:26;52.91;39.21;69.46;;
66589;Laerm;53447;49.272;11.070;2023-09-08T08:33:52;42.93;39.03;57.86;;
66589;Laerm;53447;49.272;11.070;2023-09-08T08:36:17;46.39;39.56;66.83;;
66589;Laerm;53447;49.272;11.070;2023-09-08T08:38:42;45.24;39.21;60.63;;
66589;Laerm;53447;49.272;11.070;2023-09-08T08:41:07;44.30;38.93;61.83;;
66589;Laerm;53447;49.272;11.070;2023-09-08T08:43:32;43.71;38.42;66.16;;
66589;Laerm;53447;49.272;11.070;2023-09-08T08:45:58;47.05;38.42;64.20;;
66589;Laerm;53447;49.272;11.070;2023-09-08T08:48:23;41.42;39.03;48.16;;
66589;Laerm;53447;49.272;11.070;2023-09-08T08:50:50;41.38;37.02;44.93;;
66589;Laerm;53447;49.272;11.070;2023-09-08T08:53:15;41.35;39.30;49.11;;
66589;Laerm;53447;49.272;11.070;2023-09-08T08:55:42;41.61;39.39;46.36;;
66589;Laerm;53447;49.272;11.070;2023-09-08T08:58:07;41.60;38.83;48.67;;
66589;Laerm;53447;49.272;11.070;2023-09-08T09:00:33;42.61;38.83;61.86;;
66589;Laerm;53447;49.272;11.070;2023-09-08T09:02:59;49.36;39.12;67.12;;
66589;Laerm;53447;49.272;11.070;2023-09-08T09:05:24;45.66;39.39;59.61;;
66589;Laerm;53447;49.272;11.070;2023-09-08T09:07:50;41.51;38.53;55.54;;
66589;Laerm;53447;49.272;11.070;2023-09-08T09:10:16;51.13;39.12;70.21;;
66589;Laerm;53447;49.272;11.070;2023-09-08T09:12:41;52.45;39.56;84.34;;
66589;Laerm;53447;49.272;11.070;2023-09-08T09:15:06;53.53;37.02;73.03;;
66589;Laerm;53447;49.272;11.070;2023-09-08T09:17:33;42.60;37.71;57.78;;
66589;Laerm;53447;49.272;11.070;2023-09-08T09:20:12;52.46;38.31;73.44;;
66589;Laerm;53447;49.272;11.070;2023-09-08T09:22:38;40.98;37.17;48.70;;
66589;Laerm;53447;49.272;11.070;2023-09-08T09:25:04;48.32;38.31;66.20;;
66589;Laerm;53447;49.272;11.070;2023-09-08T09:27:32;42.67;38.20;63.62;;
66589;Laerm;53447;49.272;11.070;2023-09-08T09:29:57;41.05;38.31;51.57;;
66589;Laerm;53447;49.272;11.070;2023-09-08T09:32:23;50.12;38.53;70.95;;
66589;Laerm;53447;49.272;11.070;2023-09-08T09:34:50;57.68;39.48;79.69;;
66589;Laerm;53447;49.272;11.070;2023-09-08T09:37:16;49.93;39.03;73.81;;
66589;Laerm;53447;49.272;11.070;2023-09-08T09:39:41;50.79;39.48;67.83;;
66589;Laerm;53447;49.272;11.070;2023-09-08T09:42:07;47.75;39.21;65.33;;
66589;Laerm;53447;49.272;11.070;2023-09-08T09:44:32;52.65;38.93;78.57;;
66589;Laerm;53447;49.272;11.070;2023-09-08T09:46:57;56.68;41.59;79.51;;
66589;Laerm;53447;49.272;11.070;2023-09-08T09:49:25;54.98;40.46;77.81;;
66589;Laerm;53447;49.272;11.070;2023-09-08T09:51:56;51.20;38.93;69.43;;
66589;Laerm;53447;49.272;11.070;2023-09-08T09:54:23;54.88;39.39;80.12;;
66589;Laerm;53447;49.272;11.070;2023-09-08T09:56:48;46.82;38.63;71.01;;
66589;Laerm;53447;49.272;11.070;2023-09-08T09:59:13;47.80;39.72;63.91;;
66589;Laerm;53447;49.272;11.070;2023-09-08T10:01:42;52.44;40.11;69.82;;
66589;Laerm;53447;49.272;11.070;2023-09-08T10:04:11;53.09;40.18;67.06;;
66589;Laerm;53447;49.272;11.070;2023-09-08T10:06:36;46.67;37.84;69.50;;
66589;Laerm;53447;49.272;11.070;2023-09-08T10:09:03;50.98;39.12;79.87;;
66589;Laerm;53447;49.272;11.070;2023-09-08T10:11:33;49.42;38.93;69.00;;
66589;Laerm;53447;49.272;11.070;2023-09-08T10:13:59;68.09;38.83;93.25;;
66589;Laerm;53447;49.272;11.070;2023-09-08T10:16:26;45.10;37.31;62.75;;
66589;Laerm;53447;49.272;11.070;2023-09-08T10:18:51;53.55;38.63;72.68;;
66589;Laerm;53447;49.272;11.070;2023-09-08T10:21:16;57.97;46.87;82.03;;
66589;Laerm;53447;49.272;11.070;2023-09-08T10:23:44;55.05;39.64;71.02;;
66589;Laerm;53447;49.272;11.070;2023-09-08T10:26:31;45.29;38.08;60.41;;
66589;Laerm;53447;49.272;11.070;2023-09-08T10:28:59;62.74;50.29;89.60;;
66589;Laerm;53447;49.272;11.070;2023-09-08T10:31:25;68.08;40.32;95.68;;
66589;Laerm;53447;49.272;11.070;2023-09-08T10:33:51;69.71;38.73;98.03;;
66589;Laerm;53447;49.272;11.070;2023-09-08T10:36:17;44.37;37.71;57.90;;
66589;Laerm;53447;49.272;11.070;2023-09-08T10:38:42;48.87;38.31;71.18;;
66589;Laerm;53447;49.272;11.070;2023-09-08T10:43:44;48.85;40.11;66.49;;
66589;Laerm;53447;49.272;11.070;2023-09-08T10:46:10;49.60;38.73;67.13;;
66589;Laerm;53447;49.272;11.070;2023-09-08T10:48:54;48.91;39.30;64.48;;
66589;Laerm;53447;49.272;11.070;2023-09-08T10:51:20;53.37;38.63;69.99;;
66589;Laerm;53447;49.272;11.070;2023-09-08T10:53:47;54.15;39.03;71.73;;
66589;Laerm;53447;49.272;11.070;2023-09-08T10:56:14;41.09;38.73;45.45;;
66589;Laerm;53447;49.272;11.070;2023-09-08T10:58:39;42.81;39.04;49.08;;
66589;Laerm;53447;49.272;11.070;2023-09-08T11:01:08;52.03;38.83;67.15;;
66589;Laerm;53447;49.272;11.070;2023-09-08T11:06:02;43.05;38.31;51.16;;
66589;Laerm;53447;49.272;11.070;2023-09-08T11:08:27;52.75;39.03;69.38;;
66589;Laerm;53447;49.272;11.070;2023-09-08T11:10:53;41.21;38.31;53.99;;
66589;Laerm;53447;49.272;11.070;2023-09-08T11:13:19;40.77;38.31;46.99;;
66589;Laerm;53447;49.272;11.070;2023-09-08T11:15:44;50.41;38.20;69.71;;
66589;Laerm;53447;49.272;11.070;2023-09-08T11:18:09;49.89;39.72;65.11;;
66589;Laerm;53447;49.272;11.070;2023-09-08T11:20:35;52.60;39.21;73.15;;
66589;Laerm;53447;49.272;11.070;2023-09-08T11:23:00;42.31;39.39;61.81;;
66589;Laerm;53447;49.272;11.070;2023-09-08T11:25:25;50.55;38.20;69.51;;
66589;Laerm;53447;49.272;11.070;2023-09-08T11:27:51;46.49;38.31;69.03;;
66589;Laerm;53447;49.272;11.070;2023-09-08T11:30:16;59.72;39.03;86.70;;
66589;Laerm;53447;49.272;11.070;2023-09-08T11:32:42;50.45;38.73;71.42;;
66589;Laerm;53447;49.272;11.070;2023-09-08T11:35:08;43.32;38.53;56.40;;
66589;Laerm;53447;49.272;11.070;2023-09-08T11:37:38;51.27;37.71;71.10;;
66589;Laerm;53447;49.272;11.070;2023-09-08T11:40:04;50.05;38.63;69.03;;
66589;Laerm;53447;49.272;11.070;2023-09-08T11:42:39;47.05;38.63;65.39;;
66589;Laerm;53447;49.272;11.070;2023-09-08T11:45:09;42.68;37.96;58.56;;
66589;Laerm;53447;49.272;11.070;2023-09-08T11:47:34;41.14;38.63;45.94;;
66589;Laerm;53447;49.272;11.070;2023-09-08T11:50:00;40.88;38.20;46.43;;
66589;Laerm;53447;49.272;11.070;2023-09-08T11:52:27;41.16;38.73;46.79;;
66589;Laerm;53447;49.272;11.070;2023-09-08T11:54:52;48.85;38.73;67.61;;
66589;Laerm;53447;49.272;11.070;2023-09-08T11:57:18;55.61;38.83;71.85;;
66589;Laerm;53447;49.272;11.070;2023-09-08T11:59:43;53.34;38.73;69.81;;
66589;Laerm;53447;49.272;11.070;2023-09-08T12:02:11;50.87;38.63;70.03;;
66589;Laerm;53447;49.272;11.070;2023-09-08T12:04:37;52.72;38.53;68.89;;
66589;Laerm;53447;49.272;11.070;2023-09-08T12:07:02;41.12;37.45;44.73;;
66589;Laerm;53447;49.272;11.070;2023-09-08T12:09:27;50.64;39.88;69.56;;
66589;Laerm;53447;49.272;11.070;2023-09-08T12:11:52;48.74;39.12;66.65;;
66589;Laerm;53447;49.272;11.070;2023-09-08T12:14:18;44.12;38.63;60.43;;
66589;Laerm;53447;49.272;11.070;2023-09-08T12:16:43;42.16;38.83;50.55;;
66589;Laerm;53447;49.272;11.070;2023-09-08T12:19:08;52.27;38.08;69.40;;
66589;Laerm;53447;49.272;11.070;2023-09-08T12:21:56;57.19;39.64;77.67;;
66589;Laerm;53447;49.272;11.070;2023-09-08T12:27:06;42.66;39.48;57.63;;
66589;Laerm;53447;49.272;11.070;2023-09-08T12:29:31;50.91;37.96;69.17;;
66589;Laerm;53447;49.272;11.070;2023-09-08T12:31:57;51.62;38.63;71.03;;
66589;Laerm;53447;49.272;11.070;2023-09-08T12:34:22;53.11;38.93;72.52;;
66589;Laerm;53447;49.272;11.070;2023-09-08T12:36:47;41.97;39.39;54.13;;
66589;Laerm;53447;49.272;11.070;2023-09-08T12:39:12;48.85;39.21;66.89;;
66589;Laerm;53447;49.272;11.070;2023-09-08T12:41:37;41.72;39.30;50.41;;
66589;Laerm;53447;49.272;11.070;2023-09-08T12:44:03;41.36;38.08;53.06;;
66589;Laerm;53447;49.272;11.070;2023-09-08T12:46:28;43.30;38.93;60.37;;
66589;Laerm;53447;49.272;11.070;2023-09-08T12:48:55;52.71;38.42;68.19;;
66589;Laerm;53447;49.272;11.070;2023-09-08T12:51:20;49.94;38.42;66.80;;
66589;Laerm;53447;49.272;11.070;2023-09-08T12:53:45;47.19;38.73;67.65;;
66589;Laerm;53447;49.272;11.070;2023-09-08T12:56:10;49.23;38.73;66.71;;
66589;Laerm;53447;49.272;11.070;2023-09-08T12:58:36;41.32;38.31;49.06;;
66589;Laerm;53447;49.272;11.070;2023-09-08T13:01:01;41.74;39.03;60.00;;
66589;Laerm;53447;49.272;11.070;2023-09-08T13:03:26;41.58;37.71;52.25;;
66589;Laerm;53447;49.272;11.070;2023-09-08T13:05:53;55.91;37.96;71.19;;
66589;Laerm;53447;49.272;11.070;2023-09-08T13:08:19;52.98;39.12;65.56;;
66589;Laerm;53447;49.272;11.070;2023-09-08T13:10:44;50.21;38.63;70.27;;
66589;Laerm;53447;49.272;11.070;2023-09-08T13:13:09;43.16;36.71;67.74;;
66589;Laerm;53447;49.272;11.070;2023-09-08T13:15:34;44.50;39.12;71.12;;
66589;Laerm;53447;49.272;11.070;2023-09-08T13:17:59;46.85;37.84;66.60;;
66589;Laerm;53447;49.272;11.070;2023-09-08T13:20:25;41.17;38.73;44.27;;
66589;Laerm;53447;49.272;11.070;2023-09-08T13:22:50;44.06;38.83;58.60;;
66589;Laerm;53447;49.272;11.070;2023-09-08T13:25:15;41.00;38.42;50.18;;
66589;Laerm;53447;49.272;11.070;2023-09-08T13:27:40;42.92;39.03;60.90;;
66589;Laerm;53447;49.272;11.070;2023-09-08T13:30:14;41.75;37.96;58.57;;
66589;Laerm;53447;49.272;11.070;2023-09-08T13:32:39;40.89;38.42;44.78;;
66589;Laerm;53447;49.272;11.070;2023-09-08T13:35:05;41.28;37.84;49.28;;